Terminal Aerodrome Forecast
Issued by NWS

Home | Current Version | Previous Version | Text Only | Print | Product List | Glossary On
Versions: 1 2 3 4 5 6 7 8 9 10 11 12 13 14
000
FTUS45 KFGZ 242300
TAFGCN
TAF
KGCN 242330Z 2500/2524 20010KT P6SM SCT250
     FM250900 22012G20KT P6SM BKN030
     FM251400 21011G25KT 5SM -SHSN OVC030=

USA.gov is the U.S. government's official web portal to all federal, state and local government web resources and services.